createdAt,value
2018-11-29T00:00:36.490Z,21.30
2018-11-29T00:03:05.887Z,23.27
2018-11-29T00:05:34.446Z,24.10
2018-11-29T00:08:03.016Z,23.23
2018-11-29T00:10:31.586Z,21.37
2018-11-29T00:13:00.170Z,26.23
2018-11-29T00:15:28.721Z,23.73
2018-11-29T00:17:57.216Z,23.17
2018-11-29T00:20:25.760Z,17.97
2018-11-29T00:22:54.240Z,22.03
2018-11-29T00:25:22.780Z,20.80
2018-11-29T00:27:51.339Z,27.73
2018-11-29T00:30:20.989Z,24.50
2018-11-29T00:32:49.819Z,29.03
2018-11-29T00:35:18.525Z,19.62
2018-11-29T00:37:47.256Z,25.20
2018-11-29T00:40:22.576Z,29.50
2018-11-29T00:42:51.639Z,28.53
2018-11-29T00:45:22.839Z,29.97
2018-11-29T00:47:51.706Z,20.67
2018-11-29T00:50:20.740Z,23.52
2018-11-29T00:52:50.011Z,29.00
2018-11-29T00:55:19.469Z,32.93
2018-11-29T00:57:48.025Z,26.67
2018-11-29T01:00:18.596Z,26.77
2018-11-29T01:02:47.167Z,31.87
2018-11-29T01:05:15.695Z,25.90
2018-11-29T01:07:44.255Z,28.60
2018-11-29T01:10:14.521Z,23.13
2018-11-29T01:12:43.164Z,24.90
2018-11-29T01:15:13.445Z,25.83
2018-11-29T01:17:42.052Z,27.23
2018-11-29T01:20:14.363Z,25.73
2018-11-29T01:22:42.907Z,25.37
2018-11-29T01:25:12.276Z,25.27
2018-11-29T01:27:41.007Z,28.03
2018-11-29T01:30:11.610Z,28.33
2018-11-29T01:32:40.106Z,25.07
2018-11-29T01:35:09.619Z,27.30
2018-11-29T01:37:38.290Z,31.47
2018-11-29T01:40:10.008Z,25.77
2018-11-29T01:42:38.552Z,33.00
2018-11-29T01:45:07.337Z,30.77
2018-11-29T01:47:35.830Z,26.50
2018-11-29T01:50:04.543Z,27.00
2018-11-29T01:52:33.167Z,27.00
2018-11-29T01:55:01.660Z,35.10
2018-11-29T01:57:30.188Z,26.80
2018-11-29T01:59:58.796Z,29.03
2018-11-29T02:02:27.311Z,26.90
2018-11-29T02:04:55.926Z,26.10
2018-11-29T02:07:24.413Z,31.33
2018-11-29T02:09:57.200Z,25.73
2018-11-29T02:12:25.737Z,30.90
2018-11-29T02:14:54.236Z,33.10
2018-11-29T02:17:22.751Z,30.10
2018-11-29T02:19:51.365Z,30.10
2018-11-29T02:22:19.884Z,26.23
2018-11-29T02:24:48.442Z,25.60
2018-11-29T02:27:16.967Z,28.37
2018-11-29T02:29:45.548Z,34.20
2018-11-29T02:32:14.293Z,35.17
2018-11-29T02:34:42.787Z,31.80
2018-11-29T02:37:11.291Z,36.68
2018-11-29T02:39:39.875Z,30.10
2018-11-29T02:42:08.360Z,31.02
2018-11-29T02:44:37.025Z,34.67
2018-11-29T02:47:05.585Z,29.00
2018-11-29T02:49:34.105Z,28.80
2018-11-29T02:52:02.614Z,28.40
2018-11-29T02:54:31.186Z,29.83
2018-11-29T02:56:59.679Z,24.23
2018-11-29T02:59:28.339Z,31.90
2018-11-29T03:01:57.024Z,30.20
2018-11-29T03:04:25.525Z,30.33
2018-11-29T03:06:54.065Z,31.83
2018-11-29T03:09:22.576Z,30.93
2018-11-29T03:11:51.080Z,25.80
2018-11-29T03:14:19.627Z,26.37
2018-11-29T03:16:48.166Z,31.00
2018-11-29T03:19:16.749Z,26.57
2018-11-29T03:21:45.242Z,27.37
2018-11-29T03:24:13.871Z,32.00
2018-11-29T03:26:42.443Z,26.30
2018-11-29T03:29:10.999Z,24.83
2018-11-29T03:31:39.602Z,27.20
2018-11-29T03:34:08.147Z,26.30
2018-11-29T03:36:36.841Z,26.80
2018-11-29T03:39:07.220Z,29.47
2018-11-29T03:41:36.200Z,24.20
2018-11-29T03:44:04.883Z,29.40
2018-11-29T03:46:33.420Z,31.30
2018-11-29T03:49:01.987Z,24.80
2018-11-29T03:51:30.464Z,25.37
2018-11-29T03:53:58.989Z,32.17
2018-11-29T03:56:27.681Z,40.77
2018-11-29T03:58:56.194Z,38.03
2018-11-29T04:01:24.740Z,34.47
2018-11-29T04:03:53.241Z,28.43
2018-11-29T04:06:21.766Z,35.92
2018-11-29T04:08:50.292Z,31.80
2018-11-29T04:11:18.988Z,41.87
2018-11-29T04:13:47.503Z,39.33
2018-11-29T04:16:16.084Z,34.50
2018-11-29T04:18:44.758Z,41.17
2018-11-29T04:21:13.255Z,42.10
2018-11-29T04:23:41.834Z,39.93
2018-11-29T04:26:10.432Z,36.83
2018-11-29T04:28:38.939Z,34.57
2018-11-29T04:31:07.519Z,37.60
2018-11-29T04:36:08.412Z,38.27
2018-11-29T04:38:37.069Z,38.37
2018-11-29T04:41:06.108Z,37.00
2018-11-29T04:43:34.759Z,42.47
2018-11-29T04:46:43.857Z,38.47
2018-11-29T04:49:12.472Z,47.17
2018-11-29T04:51:41.025Z,35.47
2018-11-29T04:54:10.186Z,38.80
2018-11-29T04:56:38.757Z,33.10
2018-11-29T04:59:07.504Z,35.80
2018-11-29T05:01:36.196Z,37.57
2018-11-29T05:04:04.800Z,37.60
2018-11-29T05:06:33.327Z,37.20
2018-11-29T05:09:01.995Z,38.23
2018-11-29T05:11:30.592Z,39.67
2018-11-29T05:13:59.109Z,36.00
2018-11-29T05:16:27.709Z,33.90
2018-11-29T05:18:56.281Z,46.13
2018-11-29T05:21:24.831Z,35.10
2018-11-29T05:23:53.331Z,39.20
2018-11-29T05:26:21.955Z,36.57
2018-11-29T05:28:50.492Z,39.40
2018-11-29T05:31:19.024Z,36.10
2018-11-29T05:33:47.632Z,33.83
2018-11-29T05:36:16.161Z,38.00
2018-11-29T05:38:44.748Z,36.80
2018-11-29T05:41:13.288Z,32.17
2018-11-29T05:43:41.788Z,33.27
2018-11-29T05:46:10.335Z,39.53
2018-11-29T05:48:38.899Z,31.47
2018-11-29T05:51:07.616Z,33.23
2018-11-29T05:53:36.186Z,39.17
2018-11-29T05:56:04.733Z,35.53
2018-11-29T05:58:33.380Z,34.03
2018-11-29T06:01:04.683Z,35.60
2018-11-29T06:03:33.355Z,34.67
2018-11-29T06:06:01.933Z,34.90
2018-11-29T06:08:30.524Z,35.03
2018-11-29T06:10:59.140Z,34.43
2018-11-29T06:13:27.778Z,27.43
2018-11-29T06:15:56.424Z,37.50
2018-11-29T06:18:25.027Z,39.77
2018-11-29T06:20:53.541Z,35.23
2018-11-29T06:23:22.233Z,35.77
2018-11-29T06:25:50.816Z,35.07
2018-11-29T06:28:19.364Z,34.13
2018-11-29T06:30:47.956Z,34.90
2018-11-29T06:33:16.491Z,31.73
2018-11-29T06:35:45.064Z,29.73
2018-11-29T06:38:13.627Z,25.83
2018-11-29T06:40:42.135Z,31.30
2018-11-29T06:43:10.652Z,34.87
2018-11-29T06:45:39.308Z,36.50
2018-11-29T06:48:08.105Z,31.60
2018-11-29T06:50:36.673Z,32.37
2018-11-29T06:53:09.668Z,30.87
2018-11-29T06:55:38.328Z,29.90
2018-11-29T06:58:07.200Z,34.27
2018-11-29T07:00:35.880Z,25.77
2018-11-29T07:03:04.449Z,35.67
2018-11-29T07:05:39.320Z,33.03
2018-11-29T07:08:07.923Z,30.60
2018-11-29T07:10:36.667Z,27.77
2018-11-29T07:13:06.719Z,30.83
2018-11-29T07:15:35.255Z,31.67
2018-11-29T07:18:03.881Z,26.17
2018-11-29T07:20:32.464Z,29.50
2018-11-29T07:23:01.034Z,39.07
2018-11-29T07:25:29.538Z,29.77
2018-11-29T07:27:58.041Z,29.40
2018-11-29T07:30:26.643Z,31.60
2018-11-29T07:32:55.325Z,27.03
2018-11-29T07:35:24.052Z,30.13
2018-11-29T07:37:52.585Z,26.17
2018-11-29T07:40:21.100Z,29.73
2018-11-29T07:42:51.819Z,27.00
2018-11-29T07:45:21.047Z,26.17
2018-11-29T07:47:49.603Z,24.83
2018-11-29T07:50:19.356Z,29.70
2018-11-29T07:52:48.015Z,24.43
2018-11-29T07:55:17.836Z,29.33
2018-11-29T07:57:47.353Z,22.70
2018-11-29T08:01:19.024Z,27.07
2018-11-29T08:03:47.744Z,33.57
2018-11-29T08:06:16.358Z,27.27
2018-11-29T08:08:44.980Z,24.80
2018-11-29T08:11:13.489Z,23.97
2018-11-29T08:13:42.059Z,31.13
2018-11-29T08:16:10.711Z,26.83
2018-11-29T08:18:39.238Z,27.13
2018-11-29T08:21:07.737Z,28.70
2018-11-29T08:23:39.099Z,25.70
2018-11-29T08:26:07.707Z,28.60
2018-11-29T08:28:36.283Z,28.80
2018-11-29T08:31:04.895Z,28.67
2018-11-29T08:33:33.400Z,27.10
2018-11-29T08:36:01.944Z,29.73
2018-11-29T08:38:30.472Z,28.53
2018-11-29T08:40:58.951Z,25.87
2018-11-29T08:43:27.553Z,34.30
2018-11-29T08:45:56.075Z,31.17
2018-11-29T08:48:24.552Z,27.60
2018-11-29T08:50:53.341Z,32.67
2018-11-29T08:53:21.899Z,30.13
2018-11-29T08:55:50.485Z,27.57
2018-11-29T08:58:19.040Z,30.27
2018-11-29T09:00:47.571Z,29.20
2018-11-29T09:03:16.181Z,28.77
2018-11-29T09:05:44.776Z,30.00
2018-11-29T09:08:13.605Z,32.00
2018-11-29T09:10:42.092Z,36.80
2018-11-29T09:13:10.708Z,30.83
2018-11-29T09:15:39.208Z,37.93
2018-11-29T09:18:07.859Z,31.80
2018-11-29T09:20:36.460Z,34.33
2018-11-29T09:23:05.961Z,40.00
2018-11-29T09:25:34.840Z,32.20
2018-11-29T09:28:03.435Z,35.50
2018-11-29T09:30:32.130Z,33.50
2018-11-29T09:33:00.768Z,35.30
2018-11-29T09:35:29.307Z,33.73
2018-11-29T09:37:57.865Z,39.90
2018-11-29T09:40:26.345Z,31.50
2018-11-29T09:42:54.962Z,44.57
2018-11-29T09:45:24.002Z,34.30
2018-11-29T09:47:55.446Z,35.93
2018-11-29T09:50:24.687Z,36.70
2018-11-29T09:52:53.215Z,35.43
2018-11-29T09:55:21.887Z,31.43
2018-11-29T09:57:51.057Z,37.10
2018-11-29T10:00:27.711Z,32.53
2018-11-29T10:02:54.828Z,36.40
2018-11-29T10:05:23.487Z,39.20
2018-11-29T10:07:52.037Z,38.13
2018-11-29T10:10:20.536Z,37.23
2018-11-29T10:12:49.078Z,36.23
2018-11-29T10:15:17.579Z,34.93
2018-11-29T10:17:46.092Z,33.67
2018-11-29T10:20:14.771Z,32.03
2018-11-29T10:22:43.688Z,37.43
2018-11-29T10:25:14.199Z,33.40
2018-11-29T10:27:46.149Z,33.83
2018-11-29T10:30:26.083Z,38.47
2018-11-29T10:32:54.729Z,36.03
2018-11-29T10:35:23.307Z,37.83
2018-11-29T10:37:51.830Z,38.63
2018-11-29T10:40:20.368Z,34.90
2018-11-29T10:42:49.477Z,56.83
2018-11-29T10:45:20.161Z,56.30
2018-11-29T10:47:52.532Z,58.03
2018-11-29T10:50:19.668Z,43.83
2018-11-29T10:52:48.923Z,46.80
2018-11-29T10:55:19.055Z,41.63
2018-11-29T10:57:47.924Z,36.10
2018-11-29T11:00:27.103Z,38.50
2018-11-29T11:03:07.641Z,38.47
2018-11-29T11:05:37.168Z,41.47
2018-11-29T11:08:08.542Z,33.00
2018-11-29T11:10:36.467Z,33.93
2018-11-29T11:13:05.936Z,30.13
2018-11-29T11:15:34.822Z,32.63
2018-11-29T11:18:04.051Z,33.53
2018-11-29T11:20:33.053Z,35.13
2018-11-29T11:23:02.745Z,28.27
2018-11-29T11:25:31.836Z,34.03
2018-11-29T11:28:00.848Z,29.03
2018-11-29T11:30:30.431Z,27.70
2018-11-29T11:33:00.455Z,29.30
2018-11-29T11:35:31.176Z,32.10
2018-11-29T11:38:00.705Z,27.30
2018-11-29T11:40:29.678Z,25.17
2018-11-29T11:42:58.220Z,28.43
2018-11-29T11:45:27.360Z,22.30
2018-11-29T11:48:03.012Z,27.90
2018-11-29T11:50:25.869Z,26.90
2018-11-29T11:52:55.587Z,25.93
2018-11-29T11:55:30.069Z,20.80
2018-11-29T11:57:53.681Z,24.93
2018-11-29T12:00:24.614Z,22.50
2018-11-29T12:03:02.785Z,21.23
2018-11-29T12:05:32.577Z,28.33
2018-11-29T12:08:01.542Z,20.90
2018-11-29T12:10:30.740Z,18.93
2018-11-29T12:13:00.366Z,20.73
2018-11-29T12:15:30.016Z,19.40
2018-11-29T12:18:02.675Z,17.53
2018-11-29T12:20:32.754Z,16.90
2018-11-29T12:23:01.921Z,16.83
2018-11-29T12:25:31.500Z,15.53
2018-11-29T12:28:01.388Z,15.90
2018-11-29T12:30:33.835Z,15.30
2018-11-29T12:33:05.316Z,15.30
2018-11-29T12:35:36.512Z,13.77
2018-11-29T12:38:06.141Z,15.83
2018-11-29T12:40:35.474Z,12.10
2018-11-29T12:43:06.032Z,14.63
2018-11-29T12:45:35.866Z,12.73
2018-11-29T12:48:07.025Z,15.67
2018-11-29T12:50:40.445Z,14.33
2018-11-29T12:53:09.515Z,13.87
2018-11-29T12:55:41.738Z,14.33
2018-11-29T12:58:10.993Z,16.43
2018-11-29T13:00:39.558Z,23.13
2018-11-29T13:03:08.202Z,23.90
2018-11-29T13:05:37.872Z,30.03
2018-11-29T13:08:07.308Z,80.57
2018-11-29T13:10:35.807Z,321.33
2018-11-29T13:13:04.476Z,141.37
2018-11-29T13:15:34.096Z,29.27
2018-11-29T13:18:04.233Z,18.53
2018-11-29T13:20:32.867Z,12.77
2018-11-29T13:23:01.425Z,26.97
2018-11-29T13:25:30.160Z,18.73
2018-11-29T13:27:58.896Z,12.60
2018-11-29T13:30:27.517Z,17.00
2018-11-29T13:32:57.013Z,15.50
2018-11-29T13:35:30.121Z,14.10
2018-11-29T13:38:02.065Z,11.40
2018-11-29T13:40:30.743Z,15.00
2018-11-29T13:42:59.375Z,11.33
2018-11-29T13:45:28.032Z,12.20
2018-11-29T13:47:56.702Z,10.33
2018-11-29T13:50:25.304Z,13.30
2018-11-29T13:52:54.011Z,12.07
2018-11-29T13:55:22.573Z,19.77
2018-11-29T13:57:51.552Z,10.67
2018-11-29T14:00:21.150Z,10.40
2018-11-29T14:02:52.739Z,10.03
2018-11-29T14:05:21.200Z,11.07
2018-11-29T14:07:49.744Z,14.27
2018-11-29T14:10:19.207Z,16.80
2018-11-29T14:12:48.648Z,18.97
2018-11-29T14:15:20.204Z,12.97
2018-11-29T14:17:48.810Z,15.47
2018-11-29T14:20:17.404Z,16.70
2018-11-29T14:22:46.003Z,14.60
2018-11-29T14:25:15.417Z,21.40
2018-11-29T14:27:45.204Z,95.10
2018-11-29T14:30:16.608Z,17.33
2018-11-29T14:32:45.147Z,13.80
2018-11-29T14:35:13.688Z,14.10
2018-11-29T14:37:42.297Z,41.33
2018-11-29T14:40:21.236Z,42.30
2018-11-29T14:42:49.764Z,21.50
2018-11-29T14:45:19.264Z,11.40
2018-11-29T14:47:47.900Z,9.90
2018-11-29T14:50:37.755Z,12.00
2018-11-29T14:53:07.589Z,12.57
2018-11-29T14:55:36.569Z,11.17
2018-11-29T14:58:05.470Z,9.80
2018-11-29T15:00:34.144Z,10.67
2018-11-29T15:03:04.241Z,10.43
2018-11-29T15:05:32.967Z,16.47
2018-11-29T15:08:01.529Z,14.17
2018-11-29T15:10:30.072Z,8.90
2018-11-29T15:12:58.581Z,10.07
2018-11-29T15:15:27.084Z,11.30
2018-11-29T15:17:55.662Z,10.03
2018-11-29T15:20:27.337Z,16.17
2018-11-29T15:22:55.420Z,12.13
2018-11-29T15:25:24.000Z,12.37
2018-11-29T15:27:53.015Z,7.00
2018-11-29T15:30:22.744Z,7.10
2018-11-29T15:32:51.282Z,9.17
2018-11-29T15:35:19.900Z,8.90
2018-11-29T15:37:48.421Z,8.17
2018-11-29T15:40:17.698Z,12.70
2018-11-29T15:42:46.428Z,9.30
2018-11-29T15:45:17.139Z,6.37
2018-11-29T15:47:45.644Z,7.37
2018-11-29T15:50:14.958Z,11.63
2018-11-29T15:52:43.457Z,7.33
2018-11-29T15:55:15.637Z,8.70
2018-11-29T15:57:44.591Z,8.00
2018-11-29T16:00:30.371Z,8.88
2018-11-29T16:03:03.820Z,14.60
2018-11-29T16:05:32.399Z,10.78
2018-11-29T16:08:00.913Z,10.87
2018-11-29T16:10:29.439Z,9.97
2018-11-29T16:12:57.971Z,10.60
2018-11-29T16:15:26.503Z,7.87
2018-11-29T16:17:54.981Z,8.07
2018-11-29T16:20:29.770Z,15.13
2018-11-29T16:22:58.340Z,9.63
2018-11-29T16:25:26.975Z,10.37
2018-11-29T16:27:55.479Z,8.67
2018-11-29T16:30:33.058Z,9.37
2018-11-29T16:33:05.073Z,9.00
2018-11-29T16:35:33.670Z,9.33
2018-11-29T16:38:02.124Z,7.63
2018-11-29T16:40:30.683Z,9.27
2018-11-29T16:42:59.211Z,13.20
2018-11-29T16:45:27.899Z,10.60
2018-11-29T16:47:56.392Z,11.67
2018-11-29T16:50:24.868Z,9.80
2018-11-29T16:52:53.451Z,9.90
2018-11-29T16:55:21.954Z,12.30
2018-11-29T16:57:52.498Z,10.90
2018-11-29T17:00:22.915Z,12.30
2018-11-29T17:02:51.547Z,12.40
2018-11-29T17:05:20.111Z,10.93
2018-11-29T17:07:48.671Z,11.03
2018-11-29T17:10:18.340Z,9.43
2018-11-29T17:12:51.436Z,9.47
2018-11-29T17:15:20.232Z,11.53
2018-11-29T17:17:48.781Z,9.73
2018-11-29T17:20:18.119Z,9.05
2018-11-29T17:22:47.672Z,11.50
2018-11-29T17:25:16.263Z,11.90
2018-11-29T17:27:44.813Z,15.23
2018-11-29T17:30:19.131Z,11.40
2018-11-29T17:32:48.048Z,15.40
2018-11-29T17:35:16.521Z,12.23
2018-11-29T17:37:45.024Z,34.07
2018-11-29T17:40:14.572Z,48.17
2018-11-29T17:42:43.159Z,15.80
2018-11-29T17:45:13.994Z,19.83
2018-11-29T17:47:43.535Z,19.77
2018-11-29T17:50:16.429Z,23.53
2018-11-29T17:52:44.993Z,14.40
2018-11-29T17:55:13.578Z,16.60
2018-11-29T17:57:42.155Z,14.03
2018-11-29T18:00:15.076Z,12.87
2018-11-29T18:02:43.592Z,10.77
2018-11-29T18:05:12.122Z,10.37
2018-11-29T18:07:40.784Z,15.83
2018-11-29T18:10:13.568Z,11.67
2018-11-29T18:12:42.219Z,12.37
2018-11-29T18:15:13.453Z,12.60
2018-11-29T18:17:42.160Z,11.47
2018-11-29T18:20:11.744Z,12.47
2018-11-29T18:22:40.468Z,13.77
2018-11-29T18:25:11.202Z,10.93
2018-11-29T18:27:40.316Z,13.03
2018-11-29T18:30:14.201Z,12.87
2018-11-29T18:32:42.772Z,10.50
2018-11-29T18:35:12.117Z,13.40
2018-11-29T18:37:40.795Z,10.83
2018-11-29T18:40:16.876Z,10.43
2018-11-29T18:42:46.689Z,12.70
2018-11-29T18:45:15.816Z,14.97
2018-11-29T18:47:45.277Z,13.37
2018-11-29T18:50:15.821Z,13.40
2018-11-29T18:52:44.364Z,13.10
2018-11-29T18:55:12.963Z,10.43
2018-11-29T18:57:41.512Z,16.70
2018-11-29T19:00:16.268Z,15.40
2018-11-29T19:02:44.819Z,15.67
2018-11-29T19:05:13.688Z,10.60
2018-11-29T19:07:42.284Z,11.83
2018-11-29T19:10:15.584Z,16.30
2018-11-29T19:12:46.548Z,16.37
2018-11-29T19:15:15.098Z,12.80
2018-11-29T19:17:43.583Z,13.43
2018-11-29T19:20:13.591Z,12.83
2018-11-29T19:22:42.184Z,14.87
2018-11-29T19:25:13.993Z,15.20
2018-11-29T19:27:41.690Z,14.60
2018-11-29T19:30:16.166Z,16.30
2018-11-29T19:32:45.728Z,14.80
2018-11-29T19:35:14.249Z,15.20
2018-11-29T19:37:42.764Z,15.30
2018-11-29T19:40:15.236Z,15.40
2018-11-29T19:42:43.750Z,12.97
2018-11-29T19:45:16.021Z,25.67
2018-11-29T19:47:44.562Z,37.33
2018-11-29T19:50:17.030Z,46.83
2018-11-29T19:52:48.605Z,40.93
2018-11-29T19:55:20.552Z,32.17
2018-11-29T19:57:52.009Z,14.90
2018-11-29T20:00:20.680Z,16.00
2018-11-29T20:02:49.954Z,13.63
2018-11-29T20:05:18.588Z,13.03
2018-11-29T20:07:47.153Z,15.07
2018-11-29T20:10:16.695Z,16.10
2018-11-29T20:12:45.995Z,13.43
2018-11-29T20:15:18.507Z,12.50
2018-11-29T20:17:47.281Z,14.30
2018-11-29T20:20:15.814Z,18.77
2018-11-29T20:22:44.400Z,11.70
2018-11-29T20:25:14.094Z,13.50
2018-11-29T20:27:42.629Z,11.47
2018-11-29T20:30:16.168Z,13.93
2018-11-29T20:32:44.833Z,12.90
2018-11-29T20:35:13.605Z,12.70
2018-11-29T20:37:42.272Z,14.77
2018-11-29T20:40:12.767Z,16.37
2018-11-29T20:42:41.356Z,10.33
2018-11-29T20:45:13.365Z,12.50
2018-11-29T20:47:41.976Z,12.80
2018-11-29T20:50:14.812Z,13.40
2018-11-29T20:52:41.813Z,11.80
2018-11-29T20:55:15.064Z,13.00
2018-11-29T20:57:43.592Z,15.40
2018-11-29T21:00:15.152Z,15.50
2018-11-29T21:02:43.713Z,17.80
2018-11-29T21:05:13.495Z,15.20
2018-11-29T21:07:43.212Z,11.47
2018-11-29T21:10:14.361Z,14.23
2018-11-29T21:12:43.037Z,16.93
2018-11-29T21:15:11.641Z,13.73
2018-11-29T21:17:40.247Z,21.33
2018-11-29T21:20:11.397Z,16.77
2018-11-29T21:22:40.043Z,16.10
2018-11-29T21:25:11.820Z,11.90
2018-11-29T21:27:40.403Z,13.30
2018-11-29T21:30:12.311Z,8.83
2018-11-29T21:32:48.025Z,11.73
2018-11-29T21:35:18.965Z,14.90
2018-11-29T21:37:47.745Z,11.70
2018-11-29T21:40:21.795Z,11.37
2018-11-29T21:42:50.744Z,11.07
2018-11-29T21:45:20.327Z,10.98
2018-11-29T21:47:48.886Z,13.40
2018-11-29T21:50:17.432Z,11.97
2018-11-29T21:52:46.545Z,11.90
2018-11-29T21:55:15.392Z,12.63
2018-11-29T21:57:43.983Z,16.60
2018-11-29T22:00:19.518Z,12.90
2018-11-29T22:02:57.972Z,13.73
2018-11-29T22:05:26.602Z,14.73
2018-11-29T22:07:55.177Z,11.70
2018-11-29T22:10:23.860Z,14.80
2018-11-29T22:12:52.375Z,13.60
2018-11-29T22:15:21.220Z,11.47
2018-11-29T22:18:07.587Z,13.23
2018-11-29T22:20:36.726Z,11.27
2018-11-29T22:23:05.570Z,11.97
2018-11-29T22:25:34.272Z,10.93
2018-11-29T22:28:02.840Z,11.50
2018-11-29T22:30:31.439Z,11.20
2018-11-29T22:32:59.993Z,11.63
2018-11-29T22:35:28.628Z,11.37
2018-11-29T22:37:57.227Z,16.17
2018-11-29T22:40:25.747Z,12.13
2018-11-29T22:42:54.302Z,12.53
2018-11-29T22:45:22.924Z,12.47
2018-11-29T22:47:51.541Z,13.93
2018-11-29T22:50:20.021Z,11.67
2018-11-29T22:52:48.589Z,12.13
2018-11-29T22:55:17.111Z,11.07
2018-11-29T22:57:45.663Z,12.80
2018-11-29T23:00:17.735Z,14.07
2018-11-29T23:02:47.080Z,10.77
2018-11-29T23:05:15.607Z,15.17
2018-11-29T23:07:44.325Z,12.33
2018-11-29T23:10:13.200Z,18.27
2018-11-29T23:12:41.701Z,13.20
2018-11-29T23:15:11.496Z,11.67
2018-11-29T23:17:40.051Z,13.07
2018-11-29T23:20:09.970Z,18.40
2018-11-29T23:22:38.774Z,13.80
2018-11-29T23:25:09.147Z,16.57
2018-11-29T23:27:37.644Z,14.00
2018-11-29T23:30:15.055Z,11.70
2018-11-29T23:32:44.037Z,11.73
2018-11-29T23:35:13.594Z,11.90
2018-11-29T23:37:42.108Z,12.77
2018-11-29T23:40:18.767Z,16.60
2018-11-29T23:42:47.451Z,18.03
2018-11-29T23:45:15.992Z,12.00
2018-11-29T23:47:44.515Z,9.80
2018-11-29T23:50:18.096Z,13.37
2018-11-29T23:52:46.980Z,14.97
2018-11-29T23:55:18.822Z,13.53
2018-11-29T23:57:47.335Z,13.77
